createdAt,value
2017-08-01T16:20:06.620Z,29.56
2017-08-01T16:22:11.278Z,29.54
2017-08-01T16:24:17.556Z,29.50
2017-08-01T16:26:24.411Z,29.46
2017-08-01T16:28:28.917Z,29.60
2017-08-01T16:30:32.712Z,29.46
2017-08-01T16:32:36.443Z,29.41
2017-08-01T16:34:40.511Z,29.39
2017-08-01T16:36:46.589Z,29.39
2017-08-01T16:38:50.578Z,29.38
2017-08-01T16:40:54.050Z,29.39
2017-08-01T16:42:58.170Z,29.38
2017-08-01T16:45:04.983Z,29.37
2017-08-01T16:47:13.269Z,29.38
2017-08-01T16:49:18.046Z,29.38
2017-08-01T16:51:23.806Z,29.39
2017-08-01T16:53:27.559Z,29.41
2017-08-01T16:55:31.218Z,29.41
2017-08-01T16:57:36.624Z,29.41
2017-08-01T16:59:42.368Z,29.41
2017-08-01T17:01:46.144Z,29.42
2017-08-01T17:03:51.147Z,29.41
2017-08-01T17:05:55.869Z,29.42
2017-08-01T17:07:59.479Z,29.42
2017-08-01T17:10:03.027Z,29.43
2017-08-01T17:12:06.653Z,29.43
2017-08-01T17:14:10.446Z,29.43
2017-08-01T17:16:15.459Z,29.43
2017-08-01T17:18:21.564Z,29.42
2017-08-01T17:20:25.363Z,29.43
2017-08-01T17:22:31.608Z,29.43
2017-08-01T17:24:36.416Z,29.44
2017-08-01T17:26:41.408Z,29.45
2017-08-01T17:28:45.416Z,29.47
2017-08-01T17:30:49.049Z,29.47
2017-08-01T17:32:52.678Z,29.50
2017-08-01T17:34:59.596Z,29.53
2017-08-01T17:37:03.346Z,29.55
2017-08-01T17:39:06.897Z,29.57
2017-08-01T17:41:10.822Z,29.58
2017-08-01T17:43:17.245Z,29.57
2017-08-01T17:45:23.754Z,29.58
2017-08-01T17:47:29.959Z,29.59
2017-08-01T17:49:36.388Z,29.58
2017-08-01T17:51:41.894Z,29.56
2017-08-01T17:53:49.151Z,29.57
2017-08-01T17:55:53.867Z,29.58
2017-08-01T17:57:59.042Z,29.58
2017-08-01T18:00:04.739Z,29.57
2017-08-01T18:02:10.951Z,29.58
2017-08-01T18:04:15.983Z,29.58
2017-08-01T18:06:23.047Z,29.58
2017-08-01T18:08:27.680Z,29.56
2017-08-01T18:10:35.472Z,29.57
2017-08-01T18:12:40.919Z,29.57
2017-08-01T18:14:45.196Z,29.57
2017-08-01T18:16:49.011Z,29.56
2017-08-01T18:18:53.797Z,29.57
2017-08-01T18:21:01.664Z,29.56
2017-08-01T18:23:05.765Z,29.57
2017-08-01T18:25:09.466Z,29.56
2017-08-01T18:27:14.616Z,29.56
2017-08-01T18:29:19.502Z,29.56
2017-08-01T18:31:25.261Z,29.55
2017-08-01T18:33:28.996Z,29.55
2017-08-01T18:35:33.886Z,29.56
2017-08-01T18:37:41.754Z,29.56
2017-08-01T18:39:45.867Z,29.54
2017-08-01T18:41:49.865Z,29.55
2017-08-01T18:43:55.607Z,29.55
2017-08-01T18:46:00.572Z,29.56
2017-08-01T18:48:06.759Z,29.55
2017-08-01T18:50:12.087Z,29.55
2017-08-01T18:52:18.181Z,29.56
2017-08-01T18:54:22.681Z,29.56
2017-08-01T18:56:27.129Z,29.56
2017-08-01T18:58:32.973Z,29.55
2017-08-01T19:00:37.682Z,29.55
2017-08-01T19:02:41.437Z,29.56
2017-08-01T19:04:46.680Z,29.55
2017-08-01T19:06:51.781Z,29.55
2017-08-01T19:09:05.918Z,29.55
2017-08-01T19:11:09.218Z,29.56
2017-08-01T19:13:16.009Z,29.55
2017-08-01T19:15:23.150Z,29.56
2017-08-01T19:17:27.158Z,29.55
2017-08-01T19:19:30.923Z,29.56
2017-08-01T19:21:34.549Z,29.56
2017-08-01T19:23:41.522Z,29.57
2017-08-01T19:25:45.329Z,29.56
2017-08-01T19:27:50.650Z,29.56
2017-08-01T19:29:54.728Z,29.56
2017-08-01T19:32:00.021Z,29.56
2017-08-01T19:34:04.374Z,29.56
2017-08-01T19:36:08.520Z,29.57
2017-08-01T19:38:15.230Z,29.57
2017-08-01T19:40:19.144Z,29.56
2017-08-01T19:42:24.815Z,29.57
2017-08-01T19:44:28.307Z,29.56
2017-08-01T19:46:32.084Z,29.89
2017-08-01T19:48:38.356Z,29.91
2017-08-01T19:50:43.983Z,29.99
2017-08-01T19:52:48.718Z,30.04
2017-08-01T19:54:55.644Z,30.13
2017-08-01T19:57:04.904Z,30.08
2017-08-01T19:59:09.112Z,30.01
2017-08-01T20:01:15.710Z,29.98
2017-08-01T20:03:22.583Z,29.94
2017-08-01T20:05:26.889Z,29.97
2017-08-01T20:07:32.650Z,29.90
2017-08-01T20:09:35.844Z,29.88
2017-08-01T20:11:42.288Z,29.85
2017-08-01T20:13:47.912Z,29.65
2017-08-01T20:15:51.607Z,29.80
2017-08-01T20:17:54.790Z,29.73
2017-08-01T20:20:01.330Z,29.86
2017-08-01T20:22:07.154Z,29.76
2017-08-01T20:24:11.036Z,29.72
2017-08-01T20:26:17.455Z,29.62
2017-08-01T20:28:23.194Z,29.57
2017-08-01T20:30:27.054Z,29.59
2017-08-01T20:32:32.120Z,29.68
2017-08-01T20:34:36.276Z,29.60
2017-08-01T20:36:40.849Z,29.50
2017-08-01T20:38:47.139Z,29.44
2017-08-01T20:40:53.619Z,29.54
2017-08-01T20:42:58.772Z,29.51
2017-08-01T20:45:05.123Z,29.46
2017-08-01T20:47:09.847Z,29.48
2017-08-01T20:49:16.360Z,29.52
2017-08-01T20:51:20.390Z,29.40
2017-08-01T20:53:24.830Z,29.37
2017-08-01T20:55:29.791Z,29.36
2017-08-01T20:57:34.285Z,29.36
2017-08-01T20:59:39.859Z,29.40
2017-08-01T21:01:46.498Z,29.34
2017-08-01T21:03:52.766Z,29.33
2017-08-01T21:05:56.758Z,29.27
2017-08-01T21:08:05.549Z,29.25
2017-08-01T21:10:12.038Z,29.17
2017-08-01T21:12:17.786Z,29.16
2017-08-01T21:14:22.246Z,29.14
2017-08-01T21:16:26.631Z,29.22
2017-08-01T21:18:31.345Z,29.20
2017-08-01T21:20:36.634Z,29.13
2017-08-01T21:22:41.615Z,29.20
2017-08-01T21:24:50.214Z,29.25
2017-08-01T21:26:55.066Z,29.24
2017-08-01T21:28:58.404Z,29.23
2017-08-01T21:31:04.336Z,29.20
2017-08-01T21:33:09.987Z,29.17
2017-08-01T21:35:15.502Z,29.17
2017-08-01T21:37:19.344Z,29.12
2017-08-01T21:39:24.538Z,29.11
2017-08-01T21:41:28.357Z,29.12
2017-08-01T21:43:34.995Z,29.14
2017-08-01T21:47:59.965Z,29.08
2017-08-01T21:50:22.118Z,29.09
2017-08-01T21:52:43.078Z,29.10
2017-08-01T21:55:04.322Z,29.07
2017-08-01T21:57:26.830Z,29.06
2017-08-01T21:59:48.372Z,29.05
2017-08-01T22:02:12.056Z,29.05
2017-08-01T22:04:33.550Z,29.07
2017-08-01T22:06:55.201Z,29.08
2017-08-01T22:09:20.923Z,29.03
2017-08-01T22:11:43.507Z,28.99
2017-08-01T22:14:07.229Z,29.00
2017-08-01T22:16:31.409Z,28.95
2017-08-01T22:18:55.490Z,28.96
2017-08-01T22:21:22.475Z,28.88
2017-08-01T22:23:50.052Z,28.93
2017-08-01T22:26:13.562Z,28.95
2017-08-01T22:28:38.699Z,28.95
2017-08-01T22:31:02.754Z,28.88
2017-08-01T22:33:30.089Z,28.85
2017-08-01T22:35:54.588Z,28.81
2017-08-01T22:38:19.181Z,28.75
2017-08-01T22:40:43.104Z,28.76
2017-08-01T22:43:07.450Z,28.68
2017-08-01T22:45:32.340Z,28.65
2017-08-01T22:47:58.260Z,28.68
2017-08-01T22:50:22.339Z,28.68
2017-08-01T22:52:46.002Z,28.69
2017-08-01T22:55:09.780Z,28.68
2017-08-01T22:57:33.554Z,28.63
2017-08-01T22:59:56.176Z,28.59
2017-08-01T23:02:19.764Z,28.59
2017-08-01T23:04:43.025Z,28.59
2017-08-01T23:07:06.240Z,28.61
2017-08-01T23:09:29.758Z,28.61
2017-08-01T23:11:52.025Z,28.64
2017-08-01T23:14:15.855Z,28.63
2017-08-01T23:16:39.427Z,28.61
2017-08-01T23:19:02.686Z,28.63
2017-08-01T23:21:29.254Z,28.61
2017-08-01T23:23:52.172Z,28.61
2017-08-01T23:26:15.640Z,28.59
2017-08-01T23:28:41.202Z,28.57
2017-08-01T23:31:04.614Z,28.57
2017-08-01T23:33:31.363Z,28.58
2017-08-01T23:35:55.330Z,28.55
2017-08-01T23:38:18.914Z,28.55
2017-08-01T23:40:42.263Z,28.50
2017-08-01T23:43:06.225Z,28.51
2017-08-01T23:45:28.869Z,28.52
2017-08-01T23:47:52.643Z,28.47
2017-08-01T23:50:16.434Z,28.43
2017-08-01T23:52:39.377Z,28.47
2017-08-01T23:55:02.203Z,28.49
2017-08-01T23:57:26.716Z,28.45
2017-08-01T23:59:49.928Z,28.43
